Time;durP1;ratioP1;P1;durP2;ratioP2;P2;SDS_P1;SDS_P2;PMS_P1;PMS_P2;Temp;Humidity;BMP_temperature;BMP_pressure;BME280_temperature;BME280_humidity;BME280_pressure;Samples;Min_cycle;Max_cycle;Signal;HPM_P1;HPM_P2
2021/11/08 00:02:01;;;;;;;12.23;1.75;;;;;;;9.39;75.14;102126.22;4995431;28;21166;-58
2021/11/08 00:04:26;;;;;;;8.85;1.67;;;;;;;9.35;75.48;102126.09;4992292;28;20370;-58
2021/11/08 00:06:52;;;;;;;7.53;1.60;;;;;;;9.26;74.98;102119.66;4983886;28;20050;-58
2021/11/08 00:09:18;;;;;;;9.90;2.00;;;;;;;9.15;74.88;102119.22;4994231;28;20041;-58
2021/11/08 00:11:45;;;;;;;7.55;1.40;;;;;;;9.06;74.77;102118.88;4992008;28;20133;-59
2021/11/08 00:14:13;;;;;;;7.93;1.58;;;;;;;9.00;74.59;102121.25;4996318;28;20081;-58
2021/11/08 00:16:47;;;;;;;8.70;2.05;;;;;;;9.00;74.31;102113.44;4999771;28;20061;-57
2021/11/08 00:21:59;;;;;;;12.55;2.20;;;;;;;8.96;75.09;102122.81;4991864;28;20292;-59
2021/11/08 00:24:27;;;;;;;8.88;1.80;;;;;;;8.98;75.16;102117.69;4996725;28;20045;-56
2021/11/08 00:26:53;;;;;;;11.77;2.15;;;;;;;8.96;75.68;102112.41;4986759;28;20556;-58
2021/11/08 00:29:19;;;;;;;9.00;1.90;;;;;;;9.04;76.11;102112.72;4985862;28;20955;-58
2021/11/08 00:31:44;;;;;;;13.88;2.10;;;;;;;9.13;76.17;102104.41;4996250;28;20176;-58
2021/11/08 00:34:10;;;;;;;10.63;2.05;;;;;;;9.13;76.59;102114.81;4992238;28;20473;-57
2021/11/08 00:36:35;;;;;;;12.60;2.25;;;;;;;9.29;76.47;102109.34;4995790;28;20405;-58
2021/11/08 00:39:01;;;;;;;10.60;2.08;;;;;;;9.34;76.31;102119.09;4989064;28;20132;-59
2021/11/08 00:41:26;;;;;;;16.00;2.17;;;;;;;9.39;76.15;102119.31;4996882;28;20046;-58
2021/11/08 00:43:52;;;;;;;9.60;2.13;;;;;;;9.45;76.57;102123.84;4992728;28;20046;-59
2021/11/08 00:46:17;;;;;;;12.95;2.50;;;;;;;9.48;76.05;102132.66;4989004;28;20057;-57
2021/11/08 00:48:44;;;;;;;11.68;1.90;;;;;;;9.51;76.29;102130.19;4990804;28;20488;-55
2021/11/08 00:51:09;;;;;;;16.15;2.40;;;;;;;9.49;76.40;102138.75;4990348;28;20598;-57
2021/11/08 00:53:35;;;;;;;19.30;2.70;;;;;;;9.44;76.30;102124.69;4991443;28;20069;-57
2021/11/08 00:56:05;;;;;;;10.88;2.30;;;;;;;9.36;75.94;102122.66;4993505;28;20047;-58
2021/11/08 00:58:36;;;;;;;10.40;2.03;;;;;;;9.27;75.39;102134.44;4990998;28;20668;-58
2021/11/08 01:01:05;;;;;;;9.05;1.80;;;;;;;9.18;75.26;102131.47;5004813;28;20037;-59
2021/11/08 01:03:35;;;;;;;8.55;2.05;;;;;;;9.11;74.96;102139.84;4993248;28;20060;-59
2021/11/08 01:06:01;;;;;;;8.32;2.05;;;;;;;9.05;75.12;102132.72;4995119;28;20037;-59
2021/11/08 01:08:26;;;;;;;6.93;1.70;;;;;;;8.97;74.97;102139.31;5001813;28;20104;-59
2021/11/08 01:10:52;;;;;;;9.52;2.17;;;;;;;8.96;74.74;102142.75;4986804;28;20045;-60
2021/11/08 01:13:17;;;;;;;6.75;2.00;;;;;;;8.86;74.83;102135.41;4998365;28;20046;-59
2021/11/08 01:15:43;;;;;;;9.07;1.90;;;;;;;8.81;74.99;102140.41;5019782;28;20119;-60
2021/11/08 01:18:09;;;;;;;8.52;2.10;;;;;;;8.75;74.96;102142.78;4993784;28;20049;-59
2021/11/08 01:20:35;;;;;;;14.10;2.25;;;;;;;8.67;75.23;102136.34;4993488;28;20069;-58
2021/11/08 01:23:03;;;;;;;10.55;2.20;;;;;;;8.65;75.18;102139.75;4987502;28;20037;-58
2021/11/08 01:25:29;;;;;;;8.27;2.10;;;;;;;8.67;75.50;102144.16;4994965;28;20057;-58
2021/11/08 01:27:57;;;;;;;7.05;1.95;;;;;;;8.74;75.42;102133.19;4993603;28;20065;-58
2021/11/08 01:30:25;;;;;;;10.50;2.50;;;;;;;8.83;76.10;102130.09;4990173;28;20495;-59
2021/11/08 01:35:29;;;;;;;11.15;2.40;;;;;;;9.01;76.47;102138.63;4997641;28;20030;-57
2021/11/08 01:38:09;;;;;;;12.63;2.35;;;;;;;9.06;76.02;102137.09;4991383;28;20456;-56
2021/11/08 01:40:36;;;;;;;13.82;2.33;;;;;;;9.06;76.00;102136.19;4994896;28;20041;-57
2021/11/08 01:43:02;;;;;;;9.55;2.20;;;;;;;9.00;75.87;102136.84;4997828;28;20053;-57
2021/11/08 01:45:27;;;;;;;12.10;2.17;;;;;;;8.92;75.27;102133.94;4993597;28;21094;-58
2021/11/08 01:47:53;;;;;;;7.85;2.03;;;;;;;8.86;75.51;102133.69;4952607;28;1204115;-58
2021/11/08 01:50:18;;;;;;;10.57;2.13;;;;;;;8.78;75.63;102142.88;4992165;28;20045;-59
2021/11/08 01:52:44;;;;;;;14.88;2.65;;;;;;;8.73;75.15;102146.13;4995386;28;20115;-58
2021/11/08 01:55:13;;;;;;;10.77;2.63;;;;;;;8.69;75.36;102141.63;4989561;28;20348;-58
2021/11/08 01:57:38;;;;;;;14.20;2.90;;;;;;;8.59;75.20;102134.28;4996432;28;20049;-58
2021/11/08 02:00:06;;;;;;;11.15;2.83;;;;;;;8.56;75.27;102135.03;4995471;28;20033;-58
2021/11/08 02:02:31;;;;;;;15.18;2.97;;;;;;;8.45;75.03;102133.72;4996360;28;20289;-58
2021/11/08 02:04:57;;;;;;;17.10;2.90;;;;;;;8.37;75.19;102135.09;4990751;28;20104;-60
2021/11/08 02:07:22;;;;;;;10.32;2.33;;;;;;;8.33;74.95;102139.28;5001109;28;20059;-59
2021/11/08 02:09:48;;;;;;;7.35;2.33;;;;;;;8.28;75.15;102132.06;5002165;28;20151;-58
2021/11/08 02:12:15;;;;;;;16.48;2.60;;;;;;;8.26;75.45;102137.19;5027069;28;20113;-59
2021/11/08 02:14:41;;;;;;;12.98;2.30;;;;;;;8.29;75.68;102142.53;4994125;28;20403;-59
2021/11/08 02:17:07;;;;;;;10.48;2.42;;;;;;;8.28;75.33;102142.47;4986358;28;20046;-59
2021/11/08 02:19:33;;;;;;;16.45;2.70;;;;;;;8.23;75.92;102141.38;4996499;28;20536;-59
2021/11/08 02:22:01;;;;;;;22.38;2.67;;;;;;;8.26;76.26;102142.41;4994547;28;20077;-57
2021/11/08 02:24:26;;;;;;;9.63;2.10;;;;;;;8.30;75.91;102143.41;4998766;28;20125;-58
2021/11/08 02:26:53;;;;;;;11.02;2.47;;;;;;;8.29;75.68;102150.34;4994653;28;20278;-58
2021/11/08 02:29:18;;;;;;;10.43;2.25;;;;;;;8.21;75.47;102138.72;4996572;28;20457;-59
2021/11/08 02:31:44;;;;;;;7.63;2.42;;;;;;;8.15;75.67;102143.66;4995965;28;20106;-59
2021/11/08 02:34:10;;;;;;;5.88;1.92;;;;;;;8.12;75.52;102140.91;4995596;28;20701;-58
2021/11/08 02:36:41;;;;;;;14.73;2.45;;;;;;;8.12;75.83;102138.31;4992418;28;20053;-57
2021/11/08 02:39:10;;;;;;;11.60;2.30;;;;;;;8.12;75.88;102148.69;4989922;28;20356;-58
2021/11/08 02:41:36;;;;;;;7.57;1.60;;;;;;;8.09;75.55;102148.56;4988577;28;20037;-57
2021/11/08 02:44:03;;;;;;;9.40;2.05;;;;;;;8.07;75.64;102148.50;4997030;28;20048;-57
2021/11/08 02:46:30;;;;;;;10.27;1.92;;;;;;;8.00;75.74;102138.66;5003890;28;20481;-57
2021/11/08 02:48:58;;;;;;;10.95;2.08;;;;;;;7.97;75.38;102141.16;4990868;28;20045;-58
2021/11/08 02:51:28;;;;;;;9.35;1.80;;;;;;;7.94;75.65;102145.28;4994118;28;20503;-58
2021/11/08 02:54:00;;;;;;;8.85;1.80;;;;;;;7.94;75.56;102147.88;4998081;28;20674;-58
2021/11/08 02:56:26;;;;;;;9.98;2.30;;;;;;;7.89;75.84;102144.22;4985876;28;20034;-57
2021/11/08 02:58:51;;;;;;;6.75;1.48;;;;;;;7.88;75.65;102143.31;4989880;28;20107;-58
2021/11/08 03:01:20;;;;;;;11.18;2.00;;;;;;;7.87;75.60;102143.28;5026184;28;20673;-58
2021/11/08 03:03:50;;;;;;;8.52;1.63;;;;;;;7.87;76.00;102151.06;4990060;28;20045;-57
2021/11/08 03:08:42;;;;;;;8.10;1.63;;;;;;;7.96;76.43;102144.56;5000027;28;20030;-57
2021/11/08 03:11:08;;;;;;;8.18;1.70;;;;;;;8.02;76.44;102147.41;4988000;28;20373;-58
2021/11/08 03:13:36;;;;;;;10.75;2.00;;;;;;;8.06;76.73;102148.44;4999173;28;20440;-58
2021/11/08 03:16:45;;;;;;;9.68;1.67;;;;;;;8.06;76.44;102145.84;4994638;28;20557;-58
2021/11/08 03:18:55;;;;;;;11.27;1.75;;;;;;;7.98;76.06;102147.22;4987896;28;20168;-58
2021/11/08 03:21:22;;;;;;;5.00;1.60;;;;;;;7.92;75.68;102147.84;5000936;28;20165;-59
2021/11/08 03:23:58;;;;;;;5.75;1.90;;;;;;;7.88;75.73;102150.22;4998559;28;20076;-58
2021/11/08 03:28:52;;;;;;;6.35;1.55;;;;;;;7.85;75.76;102143.19;4990886;28;20472;-60
2021/11/08 03:31:18;;;;;;;7.47;1.63;;;;;;;7.90;75.86;102144.28;4995618;28;20053;-58
2021/11/08 03:33:45;;;;;;;7.03;1.75;;;;;;;7.93;76.29;102141.81;4995610;28;20179;-58
2021/11/08 03:36:11;;;;;;;6.30;1.60;;;;;;;7.93;75.95;102147.00;4998021;28;20516;-57
2021/11/08 03:38:38;;;;;;;7.50;1.60;;;;;;;7.87;76.74;102146.72;5002523;28;20038;-58
2021/11/08 03:41:04;;;;;;;9.25;1.85;;;;;;;7.81;76.17;102143.84;4993431;28;20325;-58
2021/11/08 03:43:29;;;;;;;7.18;1.80;;;;;;;7.78;75.86;102159.31;4995589;28;20046;-58
2021/11/08 03:45:55;;;;;;;8.82;1.70;;;;;;;7.73;75.81;102153.03;4994686;28;20129;-57
2021/11/08 03:48:20;;;;;;;5.55;1.40;;;;;;;7.72;75.85;102159.03;4993357;28;20133;-56
2021/11/08 03:50:48;;;;;;;7.95;1.50;;;;;;;7.70;76.23;102156.38;4999430;28;20579;-60
2021/11/08 03:53:15;;;;;;;4.75;1.15;;;;;;;7.69;75.99;102162.38;4994324;28;20046;-58
2021/11/08 03:55:40;;;;;;;10.02;1.63;;;;;;;7.72;75.96;102159.03;5006472;28;20508;-57
2021/11/08 03:58:06;;;;;;;5.35;1.63;;;;;;;7.71;75.88;102162.44;5000682;28;20142;-59
2021/11/08 04:00:31;;;;;;;6.60;1.30;;;;;;;7.65;76.11;102164.75;4989236;28;20049;-58
2021/11/08 04:02:58;;;;;;;8.35;1.85;;;;;;;7.67;75.87;102168.34;4994300;28;20588;-56
2021/11/08 04:05:26;;;;;;;9.82;1.60;;;;;;;7.69;76.02;102172.75;5000151;28;20041;-56
2021/11/08 04:07:52;;;;;;;9.30;1.80;;;;;;;7.64;76.09;102184.63;4995242;28;20036;-57
2021/11/08 04:10:20;;;;;;;8.05;1.73;;;;;;;7.62;75.92;102183.66;5000229;28;20049;-58
2021/11/08 04:12:47;;;;;;;7.38;1.63;;;;;;;7.58;75.74;102181.75;4998968;28;20044;-57
2021/11/08 04:15:15;;;;;;;6.45;1.70;;;;;;;7.60;75.61;102187.91;4984666;28;20060;-57
2021/11/08 04:17:44;;;;;;;5.53;1.20;;;;;;;7.58;75.74;102184.34;4988963;28;20116;-55
2021/11/08 04:20:17;;;;;;;5.05;1.40;;;;;;;7.56;75.79;102180.78;4999821;28;20053;-56
2021/11/08 04:22:43;;;;;;;6.25;1.50;;;;;;;7.58;75.98;102183.47;4993727;28;20129;-57
2021/11/08 04:25:09;;;;;;;8.80;1.60;;;;;;;7.62;76.04;102186.25;4986460;28;20811;-57
2021/11/08 04:27:37;;;;;;;5.70;1.52;;;;;;;7.38;77.40;102189.44;4993844;28;20291;-58
2021/11/08 04:30:06;;;;;;;6.13;1.60;;;;;;;7.47;77.43;102188.16;4993551;28;20041;-59
2021/11/08 04:32:36;;;;;;;7.43;1.40;;;;;;;7.65;76.60;102190.72;4999032;28;20860;-57
2021/11/08 04:35:07;;;;;;;5.32;1.45;;;;;;;7.70;76.27;102191.81;4989759;28;20046;-57
2021/11/08 04:40:14;;;;;;;5.88;1.33;;;;;;;7.67;76.27;102191.69;4997480;28;20095;-57
2021/11/08 04:42:55;;;;;;;7.75;1.55;;;;;;;7.67;76.21;102202.97;4993300;28;20041;-58
2021/11/08 04:53:27;;;;;;;7.28;1.70;;;;;;;7.55;76.13;102194.59;4981582;28;20116;-56
2021/11/08 05:20:56;;;;;;;5.60;1.30;;;;;;;7.61;75.94;102207.88;4998375;28;20127;-58
2021/11/08 05:21:20;;;;;;;10.53;1.93;;;;;;;8.37;77.22;102198.34;4988613;28;20133;-58
2021/11/08 05:31:44;;;;;;;11.13;2.33;;;;;;;8.76;76.94;102221.66;4993187;28;20357;-58
2021/11/08 05:34:10;;;;;;;13.93;2.03;;;;;;;8.80;76.79;102219.25;4996344;28;20630;-57
2021/11/08 05:36:35;;;;;;;16.73;2.50;;;;;;;8.88;76.57;102222.19;4995107;28;20121;-58
2021/11/08 05:39:03;;;;;;;15.02;2.42;;;;;;;8.91;76.56;102224.88;4988594;28;20424;-58
2021/11/08 05:41:28;;;;;;;11.00;2.28;;;;;;;8.95;76.96;102232.00;4996575;28;20111;-58
2021/11/08 05:43:54;;;;;;;14.02;2.42;;;;;;;8.99;76.89;102236.50;4990386;28;20073;-58
2021/11/08 05:46:20;;;;;;;8.80;1.98;;;;;;;9.03;77.02;102227.09;4992198;28;20037;-59
2021/11/08 05:48:49;;;;;;;13.27;1.98;;;;;;;9.08;77.13;102228.22;4992638;28;20528;-58
2021/11/08 05:51:14;;;;;;;12.82;2.35;;;;;;;9.08;76.64;102230.81;4988932;28;20314;-59
2021/11/08 05:53:45;;;;;;;12.10;2.22;;;;;;;9.08;76.57;102234.31;4992864;28;20878;-57
2021/11/08 05:56:19;;;;;;;15.85;2.58;;;;;;;9.09;76.57;102230.84;4994833;28;20100;-58
2021/11/08 06:50:41;;;;;;;20.08;2.92;;;;;;;9.53;76.89;102253.47;4998944;28;20115;-57
2021/11/08 06:53:10;;;;;;;15.88;2.60;;;;;;;9.58;77.08;102259.72;4991424;28;20480;-58
2021/11/08 06:55:36;;;;;;;19.00;3.00;;;;;;;9.64;76.83;102261.69;4995609;28;20125;-59
2021/11/08 06:58:04;;;;;;;19.00;3.10;;;;;;;9.69;76.76;102260.16;4999752;28;20394;-58
2021/11/08 07:00:30;;;;;;;15.88;2.58;;;;;;;9.72;76.94;102265.47;5004126;28;20418;-59
2021/11/08 07:02:55;;;;;;;15.27;2.95;;;;;;;9.76;76.56;102267.38;4986707;28;20314;-59
2021/11/08 07:05:21;;;;;;;18.25;3.08;;;;;;;9.81;76.68;102265.84;5000020;28;20049;-58
2021/11/08 07:07:47;;;;;;;17.27;3.00;;;;;;;9.85;76.84;102265.13;4994818;28;20493;-59
2021/11/08 07:10:13;;;;;;;19.55;3.00;;;;;;;9.91;76.68;102262.75;4994656;28;20044;-56
2021/11/08 07:12:39;;;;;;;12.45;2.60;;;;;;;9.98;77.08;102280.41;4994009;28;20390;-59
2021/11/08 07:15:06;;;;;;;18.10;3.30;;;;;;;10.04;76.85;102290.16;4989216;28;20151;-59
2021/11/08 07:17:32;;;;;;;17.73;3.00;;;;;;;10.10;76.75;102285.19;5004993;28;20060;-60
2021/11/08 07:20:00;;;;;;;16.67;3.20;;;;;;;10.13;76.90;102295.72;4996897;28;20990;-60
2021/11/08 07:22:26;;;;;;;16.98;2.80;;;;;;;10.19;77.09;102285.56;4996134;28;20041;-59
2021/11/08 07:24:52;;;;;;;14.35;2.67;;;;;;;10.23;76.56;102287.47;4997662;28;20068;-58
2021/11/08 07:27:17;;;;;;;14.65;3.03;;;;;;;10.26;76.73;102302.31;4997637;28;20148;-60
2021/11/08 07:29:42;;;;;;;24.30;3.60;;;;;;;10.31;76.76;102303.34;4995220;28;20044;-60
2021/11/08 07:32:08;;;;;;;20.15;3.25;;;;;;;10.34;76.19;102293.94;4999765;28;21064;-58
2021/11/08 07:34:33;;;;;;;14.13;2.85;;;;;;;10.40;76.62;102302.00;4998747;28;20046;-57
2021/11/08 07:36:59;;;;;;;23.67;3.40;;;;;;;10.42;76.59;102299.47;4991391;28;20320;-58
2021/11/08 07:39:24;;;;;;;19.33;2.70;;;;;;;10.50;76.63;102305.81;4995656;28;20045;-58
2021/11/08 07:41:50;;;;;;;19.77;2.88;;;;;;;10.57;76.49;102310.44;4998194;28;20066;-59
2021/11/08 07:44:16;;;;;;;18.77;3.22;;;;;;;10.63;76.75;102309.75;4998133;28;20045;-59
2021/11/08 07:46:41;;;;;;;19.88;3.13;;;;;;;10.71;76.36;102322.25;4994718;28;20153;-59
2021/11/08 07:49:07;;;;;;;16.02;2.92;;;;;;;10.78;76.29;102325.97;4993461;28;20325;-59
2021/11/08 07:51:33;;;;;;;16.35;2.55;;;;;;;10.86;76.17;102328.00;4997104;28;20592;-59
2021/11/08 07:53:58;;;;;;;17.20;3.08;;;;;;;10.95;76.44;102324.84;4998585;28;20063;-59
2021/11/08 07:56:24;;;;;;;17.85;3.17;;;;;;;10.99;76.47;102335.44;4992491;28;20432;-59
2021/11/08 07:58:50;;;;;;;18.05;2.78;;;;;;;11.00;76.29;102331.09;4997306;28;20766;-59
2021/11/08 08:01:16;;;;;;;15.82;3.25;;;;;;;11.04;75.89;102325.13;4995800;28;20652;-59
2021/11/08 08:03:42;;;;;;;15.18;3.17;;;;;;;11.04;75.94;102338.19;5001317;28;20041;-59
2021/11/08 08:06:08;;;;;;;16.45;2.92;;;;;;;11.06;75.62;102333.91;4993390;28;20069;-58
2021/11/08 08:08:34;;;;;;;15.02;3.22;;;;;;;11.09;75.30;102340.97;5003277;28;20041;-58
2021/11/08 08:11:00;;;;;;;20.40;2.92;;;;;;;11.13;75.61;102346.34;4983350;28;20380;-58
2021/11/08 08:13:28;;;;;;;18.23;3.08;;;;;;;11.07;74.29;102355.69;5000691;28;20131;-59
2021/11/08 08:15:58;;;;;;;16.25;3.08;;;;;;;11.13;74.13;102348.97;4999153;28;20484;-58
2021/11/08 08:18:25;;;;;;;15.18;2.78;;;;;;;11.20;74.07;102352.66;4998003;28;20050;-58
2021/11/08 08:20:50;;;;;;;16.38;2.95;;;;;;;11.21;73.83;102352.72;5004170;28;20509;-59
2021/11/08 08:23:16;;;;;;;15.50;2.95;;;;;;;11.25;73.94;102358.94;4994550;28;20224;-59
2021/11/08 08:25:43;;;;;;;20.15;3.08;;;;;;;11.26;73.58;102345.03;4998690;28;21142;-58
2021/11/08 08:28:09;;;;;;;15.48;3.45;;;;;;;11.29;73.65;102353.84;4999912;28;20046;-57
2021/11/08 08:30:34;;;;;;;19.45;3.28;;;;;;;11.29;73.73;102364.31;4998999;28;20547;-59
2021/11/08 08:32:59;;;;;;;10.43;2.83;;;;;;;11.31;73.72;102377.41;4994412;28;20630;-59
2021/11/08 08:35:25;;;;;;;18.50;3.60;;;;;;;11.32;73.79;102374.88;5002832;28;20170;-59
2021/11/08 08:37:50;;;;;;;18.00;3.22;;;;;;;11.32;73.81;102368.75;4996547;28;20103;-58
2021/11/08 08:40:16;;;;;;;17.35;3.08;;;;;;;11.36;74.29;102363.69;4996473;28;20103;-59
2021/11/08 08:42:42;;;;;;;18.15;3.30;;;;;;;11.44;73.97;102368.28;5000246;28;20465;-59
2021/11/08 08:45:09;;;;;;;19.10;3.28;;;;;;;11.57;73.95;102367.84;4990801;28;20361;-57
2021/11/08 08:47:34;;;;;;;15.10;3.30;;;;;;;11.73;74.33;102365.81;5001292;28;20033;-58
2021/11/08 08:50:00;;;;;;;13.35;3.15;;;;;;;11.91;74.36;102360.28;4992369;28;20592;-59
2021/11/08 08:52:26;;;;;;;12.50;3.05;;;;;;;12.10;74.41;102361.75;5015610;28;20160;-60
2021/11/08 08:54:52;;;;;;;13.57;2.97;;;;;;;12.33;74.62;102365.03;4995153;28;20111;-61
2021/11/08 08:57:18;;;;;;;19.88;3.10;;;;;;;12.49;74.62;102364.69;5020488;28;20032;-58
2021/11/08 08:59:44;;;;;;;18.05;3.17;;;;;;;12.60;73.68;102358.91;4996208;28;20046;-59
2021/11/08 09:02:11;;;;;;;14.52;2.92;;;;;;;12.70;72.87;102360.03;4997353;28;20049;-60
2021/11/08 09:04:37;;;;;;;15.18;3.10;;;;;;;12.77;72.10;102359.38;4999794;28;20084;-59
2021/11/08 09:07:04;;;;;;;13.02;3.30;;;;;;;12.81;71.77;102365.56;4994010;28;20565;-59
2021/11/08 09:09:30;;;;;;;14.13;3.03;;;;;;;12.88;72.13;102367.53;4998525;28;20041;-58
2021/11/08 09:11:55;;;;;;;14.52;3.20;;;;;;;12.86;71.89;102380.59;5002072;28;20776;-59
2021/11/08 09:14:21;;;;;;;12.55;3.28;;;;;;;12.86;71.77;102374.47;4994661;28;20034;-60
2021/11/08 09:16:46;;;;;;;13.90;3.05;;;;;;;12.86;72.33;102380.59;4994672;28;20052;-60
2021/11/08 09:19:12;;;;;;;16.40;3.28;;;;;;;12.91;72.09;102375.47;4987689;28;20061;-59
2021/11/08 09:21:37;;;;;;;19.17;3.67;;;;;;;12.91;71.53;102388.56;4992123;28;20133;-59
2021/11/08 09:24:04;;;;;;;14.10;3.20;;;;;;;12.94;71.58;102391.25;5002586;28;20051;-58
2021/11/08 09:26:31;;;;;;;13.38;3.13;;;;;;;12.95;71.52;102390.41;4995847;28;20037;-59
2021/11/08 09:28:57;;;;;;;14.98;3.15;;;;;;;12.99;72.09;102392.28;4997646;28;20069;-59
2021/11/08 09:31:24;;;;;;;10.15;2.90;;;;;;;12.97;71.96;102391.34;4998226;28;20172;-59
2021/11/08 09:33:58;;;;;;;16.42;3.22;;;;;;;13.04;71.38;102392.41;4996018;28;20096;-59
2021/11/08 09:36:24;;;;;;;18.15;3.58;;;;;;;13.10;70.84;102389.97;4994260;28;20524;-62
2021/11/08 09:38:55;;;;;;;14.25;3.17;;;;;;;13.21;71.09;102394.66;4993373;28;20040;-61
2021/11/08 09:41:21;;;;;;;21.58;3.45;;;;;;;13.26;70.52;102390.44;5025598;28;20053;-60
2021/11/08 09:43:48;;;;;;;14.82;3.20;;;;;;;13.33;70.12;102388.88;4997405;28;20650;-59
2021/11/08 09:46:14;;;;;;;14.82;3.38;;;;;;;13.40;70.07;102385.56;4995110;28;20033;-59
2021/11/08 09:48:40;;;;;;;14.68;3.30;;;;;;;13.46;70.75;102387.44;4994027;28;20998;-59
2021/11/08 09:51:14;;;;;;;15.48;3.40;;;;;;;13.45;69.90;102394.44;4984105;28;20516;-59
2021/11/08 09:53:41;;;;;;;11.95;3.03;;;;;;;13.48;69.32;102391.00;4991810;28;20049;-59
2021/11/08 09:56:08;;;;;;;16.67;3.15;;;;;;;13.50;69.58;102391.91;4999346;28;20042;-59
2021/11/08 09:58:34;;;;;;;13.70;2.90;;;;;;;13.55;69.15;102395.53;4998275;28;20050;-58
2021/11/08 10:01:05;;;;;;;16.30;3.40;;;;;;;13.52;69.22;102398.97;4992736;28;20049;-59
2021/11/08 10:03:33;;;;;;;12.48;2.95;;;;;;;13.56;69.48;102394.69;4983931;28;20618;-59
2021/11/08 10:05:59;;;;;;;11.77;2.72;;;;;;;13.55;69.33;102392.91;5020017;28;20101;-59
2021/11/08 10:08:30;;;;;;;15.07;3.10;;;;;;;13.53;67.68;102403.38;4995001;28;20041;-58
2021/11/08 10:11:00;;;;;;;17.58;3.15;;;;;;;13.53;66.81;102402.50;4990500;28;20597;-58
2021/11/08 10:13:27;;;;;;;16.33;3.33;;;;;;;13.56;67.12;102394.69;4996209;28;20046;-58
2021/11/08 10:15:57;;;;;;;13.68;3.00;;;;;;;13.61;67.84;102398.31;4998082;28;20367;-59
2021/11/08 10:18:23;;;;;;;18.25;3.05;;;;;;;13.70;67.85;102402.06;4995461;28;20054;-60
2021/11/08 10:20:51;;;;;;;15.27;2.92;;;;;;;13.79;68.67;102399.66;4995943;28;20057;-59
2021/11/08 10:23:22;;;;;;;12.10;2.75;;;;;;;13.88;68.07;102396.38;5001123;28;20608;-59
2021/11/08 10:25:48;;;;;;;13.82;2.92;;;;;;;13.93;68.35;102396.47;5001268;28;20072;-59
2021/11/08 10:28:18;;;;;;;16.80;2.85;;;;;;;13.93;68.13;102397.38;4999585;28;20145;-58
2021/11/08 10:30:48;;;;;;;16.35;2.88;;;;;;;13.95;67.57;102395.69;4996977;28;20044;-59
2021/11/08 10:33:18;;;;;;;11.70;2.50;;;;;;;14.01;67.44;102395.81;4995304;28;20816;-58
2021/11/08 10:35:54;;;;;;;14.63;2.67;;;;;;;14.07;67.33;102392.47;4989854;28;20048;-59
2021/11/08 10:38:26;;;;;;;12.93;3.08;;;;;;;14.09;65.83;102398.59;4998388;28;20053;-59
2021/11/08 10:41:11;;;;;;;13.90;2.53;;;;;;;14.15;64.55;102391.75;4995817;28;20029;-61
2021/11/08 10:43:45;;;;;;;17.27;2.90;;;;;;;14.21;64.40;102385.75;5008079;28;20187;-58
2021/11/08 10:46:20;;;;;;;12.65;2.88;;;;;;;14.25;64.70;102387.63;4998360;28;20396;-58
2021/11/08 10:48:51;;;;;;;13.80;2.63;;;;;;;14.34;64.89;102386.94;4996393;28;20131;-58
2021/11/08 10:51:19;;;;;;;14.00;2.53;;;;;;;14.49;64.63;102382.06;4986832;28;20505;-58
2021/11/08 10:53:47;;;;;;;15.48;2.90;;;;;;;14.54;63.41;102390.91;4994244;28;20709;-59
2021/11/08 10:56:22;;;;;;;12.15;2.88;;;;;;;14.57;62.43;102386.63;4992404;28;20049;-59
2021/11/08 10:58:47;;;;;;;;;;;;;;;14.56;62.01;102386.59;4994950;28;20227;-57
2021/11/08 11:01:44;;;;;;;11.45;2.33;;;;;;;14.62;60.62;102384.09;5014314;28;19925;-60
2021/11/08 11:04:10;;;;;;;12.57;2.67;;;;;;;14.57;60.86;102388.38;4990899;28;20037;-59
2021/11/08 11:06:48;;;;;;;13.60;2.67;;;;;;;14.53;61.42;102386.50;4980407;28;20160;-58
2021/11/08 11:09:17;;;;;;;19.05;2.85;;;;;;;14.44;60.96;102383.72;4995858;28;20439;-59
2021/11/08 11:11:44;;;;;;;14.82;2.75;;;;;;;14.48;62.60;102389.03;5001400;28;20115;-58
2021/11/08 11:14:10;;;;;;;15.18;3.03;;;;;;;14.48;62.39;102399.53;5002332;28;20440;-59
2021/11/08 11:16:42;;;;;;;16.42;2.67;;;;;;;14.45;60.83;102394.25;4996689;28;20131;-59
2021/11/08 11:19:12;;;;;;;17.90;2.70;;;;;;;14.56;61.36;102390.09;4997250;28;20338;-59
2021/11/08 11:21:39;;;;;;;22.00;2.90;;;;;;;14.57;61.85;102397.13;5000378;28;20033;-59
2021/11/08 11:24:06;;;;;;;15.02;2.88;;;;;;;14.68;61.45;102404.34;5000039;28;20098;-59
2021/11/08 11:26:50;;;;;;;11.90;2.70;;;;;;;14.70;59.20;102389.50;5002682;28;20463;-60
2021/11/08 11:29:26;;;;;;;15.38;3.03;;;;;;;14.77;59.99;102396.63;5009988;28;20048;-61
2021/11/08 11:31:52;;;;;;;13.95;2.80;;;;;;;14.84;61.83;102402.03;4997821;28;20132;-58
2021/11/08 11:34:21;;;;;;;17.13;2.80;;;;;;;14.84;61.12;102409.03;5001057;28;20042;-59
2021/11/08 11:36:47;;;;;;;9.85;2.50;;;;;;;14.86;59.47;102400.34;5015100;28;20088;-59
2021/11/08 11:39:16;;;;;;;12.60;2.67;;;;;;;14.77;58.76;102392.28;4999887;28;20123;-60
2021/11/08 11:41:44;;;;;;;12.23;2.90;;;;;;;14.77;60.44;102410.66;4998082;28;20029;-59
2021/11/08 11:44:15;;;;;;;15.10;2.90;;;;;;;14.83;60.76;102407.25;5002262;28;20373;-59
2021/11/08 11:46:45;;;;;;;15.65;2.88;;;;;;;14.85;61.46;102403.81;4995407;28;20050;-58
2021/11/08 11:49:11;;;;;;;10.63;2.70;;;;;;;14.76;62.10;102406.25;4992255;28;21003;-59
2021/11/08 11:51:46;;;;;;;14.93;3.28;;;;;;;14.74;61.67;102396.59;5000613;28;20397;-58
2021/11/08 11:54:13;;;;;;;16.98;2.88;;;;;;;14.68;60.72;102399.09;4994850;28;20132;-61
2021/11/08 11:56:41;;;;;;;12.73;2.67;;;;;;;14.61;57.85;102398.06;4995817;28;20052;-59
2021/11/08 11:59:08;;;;;;;17.48;3.08;;;;;;;14.66;59.16;102392.91;4988939;28;20113;-58
2021/11/08 12:01:35;;;;;;;10.68;2.60;;;;;;;14.64;59.42;102385.00;4994196;28;20886;-58
2021/11/08 12:04:01;;;;;;;13.10;2.85;;;;;;;14.61;60.18;102383.22;4991852;28;20046;-58
2021/11/08 12:06:29;;;;;;;14.10;2.85;;;;;;;14.60;59.27;102391.94;4995354;28;20053;-61
2021/11/08 12:08:58;;;;;;;15.73;3.05;;;;;;;14.64;60.01;102392.00;4982522;28;20110;-58
2021/11/08 12:11:28;;;;;;;14.52;3.00;;;;;;;14.70;59.78;102390.38;4987763;28;20070;-60
2021/11/08 12:14:00;;;;;;;12.50;3.20;;;;;;;14.72;60.83;102395.66;4990447;28;20507;-60
2021/11/08 12:16:28;;;;;;;13.00;2.85;;;;;;;14.80;60.46;102394.09;4993936;28;20074;-57
2021/11/08 12:18:58;;;;;;;11.45;2.78;;;;;;;14.73;59.54;102389.56;4988301;28;20053;-59
2021/11/08 12:21:29;;;;;;;14.93;3.25;;;;;;;14.78;59.43;102395.78;5018856;28;20128;-59
2021/11/08 12:23:57;;;;;;;11.60;2.55;;;;;;;14.78;59.41;102391.41;4991333;28;20262;-58
2021/11/08 12:26:31;;;;;;;13.18;2.90;;;;;;;14.80;58.94;102387.09;5012140;28;20452;-59
2021/11/08 12:29:12;;;;;;;17.88;3.15;;;;;;;14.86;60.33;102391.56;4993392;28;20037;-59
2021/11/08 12:31:38;;;;;;;10.70;2.72;;;;;;;14.93;58.61;102389.13;4999415;28;20137;-59
2021/11/08 12:34:07;;;;;;;19.13;3.10;;;;;;;14.89;59.23;102383.75;5000802;28;20910;-59
2021/11/08 12:36:33;;;;;;;12.88;2.90;;;;;;;14.91;59.29;102393.44;5000955;28;20071;-58
2021/11/08 12:39:12;;;;;;;13.65;2.55;;;;;;;14.98;59.47;102387.47;4992976;28;20368;-58
2021/11/08 12:41:47;;;;;;;16.52;2.97;;;;;;;14.98;58.32;102383.94;4991657;28;20565;-58
2021/11/08 12:44:16;;;;;;;13.48;2.40;;;;;;;15.01;58.39;102381.34;4990557;28;20046;-60
2021/11/08 12:46:49;;;;;;;17.55;3.10;;;;;;;15.00;60.01;102388.34;4997865;28;20041;-59
2021/11/08 12:49:27;;;;;;;17.20;2.65;;;;;;;15.04;58.13;102376.19;5001679;28;20076;-59
2021/11/08 12:51:58;;;;;;;20.00;3.33;;;;;;;15.02;61.23;102383.13;5004103;28;20542;-58
2021/11/08 12:54:26;;;;;;;15.40;3.00;;;;;;;15.01;58.58;102381.34;4999950;28;20595;-58
2021/11/08 12:56:52;;;;;;;14.80;3.08;;;;;;;15.01;57.32;102376.09;4989693;28;20103;-58
2021/11/08 12:59:18;;;;;;;14.40;2.58;;;;;;;15.10;58.90;102370.16;4998366;28;20397;-59
2021/11/08 13:01:59;;;;;;;17.95;3.63;;;;;;;15.10;61.69;102364.91;5024906;28;20595;-59
2021/11/08 13:04:42;;;;;;;17.30;2.90;;;;;;;15.18;60.04;102376.44;4998894;28;20045;-59
2021/11/08 13:07:10;;;;;;;15.55;2.88;;;;;;;15.14;59.94;102371.97;4977228;28;20388;-58
2021/11/08 13:09:45;;;;;;;15.90;3.17;;;;;;;15.19;58.46;102373.81;4996702;28;20041;-59
2021/11/08 13:12:19;;;;;;;16.00;2.83;;;;;;;15.23;58.54;102375.66;4998835;28;20095;-59